sensor_id;sensor_type;location;lat;lon;timestamp;P1;durP1;ratioP1;P2;durP2;ratioP2
33327;SDS011;19692;52.998;9.116;2023-07-30T00:02:18;8.67;;;7.80;;
33327;SDS011;19692;52.998;9.116;2023-07-30T00:04:44;8.93;;;8.13;;
33327;SDS011;19692;52.998;9.116;2023-07-30T00:07:11;9.53;;;8.63;;
33327;SDS011;19692;52.998;9.116;2023-07-30T00:09:37;8.23;;;7.33;;
33327;SDS011;19692;52.998;9.116;2023-07-30T00:12:04;8.93;;;8.23;;
33327;SDS011;19692;52.998;9.116;2023-07-30T00:14:31;9.30;;;8.50;;
33327;SDS011;19692;52.998;9.116;2023-07-30T00:16:57;8.00;;;7.40;;
33327;SDS011;19692;52.998;9.116;2023-07-30T00:19:23;9.63;;;7.97;;
33327;SDS011;19692;52.998;9.116;2023-07-30T00:21:49;8.77;;;7.87;;
33327;SDS011;19692;52.998;9.116;2023-07-30T00:24:14;8.47;;;7.77;;
33327;SDS011;19692;52.998;9.116;2023-07-30T00:26:40;8.87;;;8.03;;
33327;SDS011;19692;52.998;9.116;2023-07-30T00:29:06;8.90;;;7.97;;
33327;SDS011;19692;52.998;9.116;2023-07-30T00:31:32;9.03;;;8.10;;
33327;SDS011;19692;52.998;9.116;2023-07-30T00:33:58;9.13;;;8.33;;
33327;SDS011;19692;52.998;9.116;2023-07-30T00:36:23;8.90;;;8.10;;
33327;SDS011;19692;52.998;9.116;2023-07-30T00:38:49;10.43;;;8.40;;
33327;SDS011;19692;52.998;9.116;2023-07-30T00:41:15;8.53;;;7.70;;
33327;SDS011;19692;52.998;9.116;2023-07-30T00:43:41;8.80;;;7.77;;
33327;SDS011;19692;52.998;9.116;2023-07-30T00:46:06;8.17;;;7.43;;
33327;SDS011;19692;52.998;9.116;2023-07-30T00:48:33;8.30;;;7.60;;
33327;SDS011;19692;52.998;9.116;2023-07-30T00:50:58;8.70;;;7.90;;
33327;SDS011;19692;52.998;9.116;2023-07-30T00:53:26;11.87;;;7.37;;
33327;SDS011;19692;52.998;9.116;2023-07-30T00:55:52;8.00;;;7.20;;
33327;SDS011;19692;52.998;9.116;2023-07-30T00:58:20;11.97;;;7.60;;
33327;SDS011;19692;52.998;9.116;2023-07-30T01:00:46;8.97;;;7.30;;
33327;SDS011;19692;52.998;9.116;2023-07-30T01:03:12;7.73;;;6.83;;
33327;SDS011;19692;52.998;9.116;2023-07-30T01:05:38;8.53;;;7.63;;
33327;SDS011;19692;52.998;9.116;2023-07-30T01:08:04;8.97;;;7.10;;
33327;SDS011;19692;52.998;9.116;2023-07-30T01:10:30;7.90;;;7.07;;
33327;SDS011;19692;52.998;9.116;2023-07-30T01:12:59;9.03;;;7.07;;
33327;SDS011;19692;52.998;9.116;2023-07-30T01:15:27;8.03;;;7.23;;
33327;SDS011;19692;52.998;9.116;2023-07-30T01:17:53;8.57;;;7.43;;
33327;SDS011;19692;52.998;9.116;2023-07-30T01:20:20;8.30;;;7.47;;
33327;SDS011;19692;52.998;9.116;2023-07-30T01:22:46;7.87;;;7.03;;
33327;SDS011;19692;52.998;9.116;2023-07-30T01:25:12;10.23;;;6.97;;
33327;SDS011;19692;52.998;9.116;2023-07-30T01:27:40;8.10;;;6.70;;
33327;SDS011;19692;52.998;9.116;2023-07-30T01:30:30;10.47;;;6.87;;
33327;SDS011;19692;52.998;9.116;2023-07-30T01:33:04;7.30;;;6.50;;
33327;SDS011;19692;52.998;9.116;2023-07-30T01:35:31;7.30;;;6.50;;
33327;SDS011;19692;52.998;9.116;2023-07-30T01:37:57;8.03;;;6.50;;
33327;SDS011;19692;52.998;9.116;2023-07-30T01:40:24;8.40;;;6.67;;
33327;SDS011;19692;52.998;9.116;2023-07-30T01:42:50;7.03;;;5.60;;
33327;SDS011;19692;52.998;9.116;2023-07-30T01:45:16;8.80;;;5.57;;
33327;SDS011;19692;52.998;9.116;2023-07-30T01:47:42;7.00;;;5.87;;
33327;SDS011;19692;52.998;9.116;2023-07-30T01:50:07;7.30;;;6.50;;
33327;SDS011;19692;52.998;9.116;2023-07-30T01:52:34;7.23;;;6.53;;
33327;SDS011;19692;52.998;9.116;2023-07-30T01:54:59;7.83;;;5.83;;
33327;SDS011;19692;52.998;9.116;2023-07-30T01:57:26;6.80;;;5.33;;
33327;SDS011;19692;52.998;9.116;2023-07-30T01:59:52;11.07;;;6.17;;
33327;SDS011;19692;52.998;9.116;2023-07-30T02:02:18;9.93;;;6.07;;
33327;SDS011;19692;52.998;9.116;2023-07-30T02:04:43;7.47;;;5.77;;
33327;SDS011;19692;52.998;9.116;2023-07-30T02:07:09;9.17;;;5.90;;
33327;SDS011;19692;52.998;9.116;2023-07-30T02:09:35;6.73;;;6.03;;
33327;SDS011;19692;52.998;9.116;2023-07-30T02:12:00;7.40;;;5.90;;
33327;SDS011;19692;52.998;9.116;2023-07-30T02:14:26;7.73;;;5.80;;
33327;SDS011;19692;52.998;9.116;2023-07-30T02:16:52;7.10;;;5.60;;
33327;SDS011;19692;52.998;9.116;2023-07-30T02:19:18;9.10;;;6.30;;
33327;SDS011;19692;52.998;9.116;2023-07-30T02:21:43;7.27;;;5.63;;
33327;SDS011;19692;52.998;9.116;2023-07-30T02:24:09;6.73;;;5.70;;
33327;SDS011;19692;52.998;9.116;2023-07-30T02:26:37;10.00;;;6.17;;
33327;SDS011;19692;52.998;9.116;2023-07-30T02:29:03;6.77;;;5.90;;
33327;SDS011;19692;52.998;9.116;2023-07-30T02:31:29;7.27;;;5.93;;
33327;SDS011;19692;52.998;9.116;2023-07-30T02:33:55;8.27;;;6.20;;
33327;SDS011;19692;52.998;9.116;2023-07-30T02:36:21;9.17;;;6.53;;
33327;SDS011;19692;52.998;9.116;2023-07-30T02:38:48;7.87;;;6.50;;
33327;SDS011;19692;52.998;9.116;2023-07-30T02:41:14;8.00;;;6.93;;
33327;SDS011;19692;52.998;9.116;2023-07-30T02:43:40;8.23;;;6.43;;
33327;SDS011;19692;52.998;9.116;2023-07-30T02:46:05;10.33;;;6.80;;
33327;SDS011;19692;52.998;9.116;2023-07-30T02:48:32;8.83;;;6.57;;
33327;SDS011;19692;52.998;9.116;2023-07-30T02:50:58;7.37;;;6.67;;
33327;SDS011;19692;52.998;9.116;2023-07-30T02:53:23;7.73;;;6.40;;
33327;SDS011;19692;52.998;9.116;2023-07-30T02:55:49;8.23;;;6.20;;
33327;SDS011;19692;52.998;9.116;2023-07-30T02:58:15;9.90;;;6.37;;
33327;SDS011;19692;52.998;9.116;2023-07-30T03:00:41;9.90;;;6.77;;
33327;SDS011;19692;52.998;9.116;2023-07-30T03:03:06;9.70;;;6.47;;
33327;SDS011;19692;52.998;9.116;2023-07-30T03:05:32;7.70;;;6.73;;
33327;SDS011;19692;52.998;9.116;2023-07-30T03:07:58;7.77;;;6.97;;
33327;SDS011;19692;52.998;9.116;2023-07-30T03:10:24;9.17;;;7.13;;
33327;SDS011;19692;52.998;9.116;2023-07-30T03:12:49;8.80;;;7.67;;
33327;SDS011;19692;52.998;9.116;2023-07-30T03:15:15;8.50;;;7.03;;
33327;SDS011;19692;52.998;9.116;2023-07-30T03:17:41;10.33;;;7.47;;
33327;SDS011;19692;52.998;9.116;2023-07-30T03:20:07;12.07;;;8.10;;
33327;SDS011;19692;52.998;9.116;2023-07-30T03:22:33;9.97;;;7.37;;
33327;SDS011;19692;52.998;9.116;2023-07-30T03:24:59;9.60;;;8.30;;
33327;SDS011;19692;52.998;9.116;2023-07-30T03:27:25;11.50;;;8.10;;
33327;SDS011;19692;52.998;9.116;2023-07-30T03:29:51;9.53;;;7.70;;
33327;SDS011;19692;52.998;9.116;2023-07-30T03:32:17;9.03;;;8.20;;
33327;SDS011;19692;52.998;9.116;2023-07-30T03:34:42;14.73;;;8.70;;
33327;SDS011;19692;52.998;9.116;2023-07-30T03:37:08;11.93;;;8.40;;
33327;SDS011;19692;52.998;9.116;2023-07-30T03:39:34;9.77;;;7.77;;
33327;SDS011;19692;52.998;9.116;2023-07-30T03:42:00;9.57;;;7.93;;
33327;SDS011;19692;52.998;9.116;2023-07-30T03:44:26;9.50;;;7.67;;
33327;SDS011;19692;52.998;9.116;2023-07-30T03:46:51;9.97;;;8.37;;
33327;SDS011;19692;52.998;9.116;2023-07-30T03:49:17;11.97;;;8.90;;
33327;SDS011;19692;52.998;9.116;2023-07-30T03:51:43;10.20;;;7.83;;
33327;SDS011;19692;52.998;9.116;2023-07-30T03:54:09;12.53;;;7.80;;
33327;SDS011;19692;52.998;9.116;2023-07-30T03:56:34;9.60;;;7.63;;
33327;SDS011;19692;52.998;9.116;2023-07-30T03:59:00;10.97;;;7.60;;
33327;SDS011;19692;52.998;9.116;2023-07-30T04:01:26;11.30;;;8.00;;
33327;SDS011;19692;52.998;9.116;2023-07-30T04:03:52;13.67;;;7.30;;
33327;SDS011;19692;52.998;9.116;2023-07-30T04:06:18;12.20;;;7.73;;
33327;SDS011;19692;52.998;9.116;2023-07-30T04:08:44;12.93;;;7.97;;
33327;SDS011;19692;52.998;9.116;2023-07-30T04:11:10;10.60;;;7.27;;
33327;SDS011;19692;52.998;9.116;2023-07-30T04:13:35;11.70;;;7.00;;
33327;SDS011;19692;52.998;9.116;2023-07-30T04:16:01;10.60;;;7.20;;
33327;SDS011;19692;52.998;9.116;2023-07-30T04:18:27;10.23;;;6.17;;
33327;SDS011;19692;52.998;9.116;2023-07-30T04:20:56;9.17;;;6.43;;
33327;SDS011;19692;52.998;9.116;2023-07-30T04:23:21;12.53;;;6.03;;
33327;SDS011;19692;52.998;9.116;2023-07-30T04:25:50;9.33;;;6.87;;
33327;SDS011;19692;52.998;9.116;2023-07-30T04:28:16;13.27;;;7.00;;
33327;SDS011;19692;52.998;9.116;2023-07-30T04:30:42;15.67;;;6.30;;
33327;SDS011;19692;52.998;9.116;2023-07-30T04:33:08;8.23;;;5.70;;
33327;SDS011;19692;52.998;9.116;2023-07-30T04:35:34;13.30;;;6.40;;
33327;SDS011;19692;52.998;9.116;2023-07-30T04:38:00;13.23;;;6.03;;
33327;SDS011;19692;52.998;9.116;2023-07-30T04:40:26;8.40;;;5.50;;
33327;SDS011;19692;52.998;9.116;2023-07-30T04:42:52;10.57;;;6.00;;
33327;SDS011;19692;52.998;9.116;2023-07-30T04:45:17;10.43;;;5.50;;
33327;SDS011;19692;52.998;9.116;2023-07-30T04:47:43;10.60;;;5.33;;
33327;SDS011;19692;52.998;9.116;2023-07-30T04:50:09;9.50;;;5.20;;
33327;SDS011;19692;52.998;9.116;2023-07-30T04:52:34;8.27;;;5.60;;
33327;SDS011;19692;52.998;9.116;2023-07-30T04:55:00;13.20;;;5.13;;
33327;SDS011;19692;52.998;9.116;2023-07-30T04:57:26;11.90;;;5.70;;
33327;SDS011;19692;52.998;9.116;2023-07-30T04:59:54;10.87;;;5.40;;
33327;SDS011;19692;52.998;9.116;2023-07-30T05:02:20;8.60;;;4.60;;
33327;SDS011;19692;52.998;9.116;2023-07-30T05:04:46;12.20;;;5.10;;
33327;SDS011;19692;52.998;9.116;2023-07-30T05:07:11;12.30;;;5.27;;
33327;SDS011;19692;52.998;9.116;2023-07-30T05:09:37;10.20;;;4.90;;
33327;SDS011;19692;52.998;9.116;2023-07-30T05:12:03;7.97;;;5.07;;
33327;SDS011;19692;52.998;9.116;2023-07-30T05:14:29;8.17;;;4.70;;
33327;SDS011;19692;52.998;9.116;2023-07-30T05:16:55;11.50;;;4.60;;
33327;SDS011;19692;52.998;9.116;2023-07-30T05:19:21;11.43;;;5.40;;
33327;SDS011;19692;52.998;9.116;2023-07-30T05:21:46;8.47;;;4.57;;
33327;SDS011;19692;52.998;9.116;2023-07-30T05:24:12;8.47;;;4.67;;
33327;SDS011;19692;52.998;9.116;2023-07-30T05:26:38;11.47;;;4.50;;
33327;SDS011;19692;52.998;9.116;2023-07-30T05:29:03;8.63;;;4.57;;
33327;SDS011;19692;52.998;9.116;2023-07-30T05:31:29;9.90;;;4.13;;
33327;SDS011;19692;52.998;9.116;2023-07-30T05:33:55;10.03;;;4.30;;
33327;SDS011;19692;52.998;9.116;2023-07-30T05:36:21;11.13;;;4.30;;
33327;SDS011;19692;52.998;9.116;2023-07-30T05:38:46;10.47;;;4.53;;
33327;SDS011;19692;52.998;9.116;2023-07-30T05:41:12;10.07;;;4.37;;
33327;SDS011;19692;52.998;9.116;2023-07-30T05:43:38;13.03;;;4.93;;
33327;SDS011;19692;52.998;9.116;2023-07-30T05:46:04;13.37;;;4.63;;
33327;SDS011;19692;52.998;9.116;2023-07-30T05:48:29;13.73;;;4.73;;
33327;SDS011;19692;52.998;9.116;2023-07-30T05:50:55;8.60;;;4.60;;
33327;SDS011;19692;52.998;9.116;2023-07-30T05:53:21;7.93;;;4.43;;
33327;SDS011;19692;52.998;9.116;2023-07-30T05:55:47;9.07;;;4.40;;
33327;SDS011;19692;52.998;9.116;2023-07-30T05:58:13;11.13;;;4.43;;
33327;SDS011;19692;52.998;9.116;2023-07-30T06:00:39;8.20;;;4.37;;
33327;SDS011;19692;52.998;9.116;2023-07-30T06:03:05;11.00;;;4.63;;
33327;SDS011;19692;52.998;9.116;2023-07-30T06:05:31;11.90;;;4.53;;
33327;SDS011;19692;52.998;9.116;2023-07-30T06:07:57;9.10;;;4.70;;
33327;SDS011;19692;52.998;9.116;2023-07-30T06:10:24;9.53;;;4.70;;
33327;SDS011;19692;52.998;9.116;2023-07-30T06:12:50;12.33;;;5.07;;
33327;SDS011;19692;52.998;9.116;2023-07-30T06:15:16;10.80;;;4.20;;
33327;SDS011;19692;52.998;9.116;2023-07-30T06:17:41;11.50;;;4.77;;
33327;SDS011;19692;52.998;9.116;2023-07-30T06:20:07;12.23;;;4.90;;
33327;SDS011;19692;52.998;9.116;2023-07-30T06:22:34;10.50;;;4.47;;
33327;SDS011;19692;52.998;9.116;2023-07-30T06:24:59;10.60;;;4.57;;
33327;SDS011;19692;52.998;9.116;2023-07-30T06:27:25;14.20;;;4.40;;
33327;SDS011;19692;52.998;9.116;2023-07-30T06:29:51;19.43;;;4.50;;
33327;SDS011;19692;52.998;9.116;2023-07-30T06:32:17;14.27;;;5.10;;
33327;SDS011;19692;52.998;9.116;2023-07-30T06:34:42;11.93;;;5.60;;
33327;SDS011;19692;52.998;9.116;2023-07-30T06:37:08;12.43;;;4.57;;
33327;SDS011;19692;52.998;9.116;2023-07-30T06:39:34;11.23;;;4.87;;
33327;SDS011;19692;52.998;9.116;2023-07-30T06:42:00;11.63;;;4.77;;
33327;SDS011;19692;52.998;9.116;2023-07-30T06:44:25;14.37;;;5.17;;
33327;SDS011;19692;52.998;9.116;2023-07-30T06:46:51;10.37;;;4.73;;
33327;SDS011;19692;52.998;9.116;2023-07-30T06:49:17;8.07;;;4.40;;
33327;SDS011;19692;52.998;9.116;2023-07-30T06:51:43;12.70;;;4.73;;
33327;SDS011;19692;52.998;9.116;2023-07-30T06:54:09;13.60;;;4.90;;
33327;SDS011;19692;52.998;9.116;2023-07-30T06:56:34;10.40;;;4.53;;
33327;SDS011;19692;52.998;9.116;2023-07-30T06:59:01;14.43;;;4.97;;
33327;SDS011;19692;52.998;9.116;2023-07-30T07:01:28;15.80;;;4.87;;
33327;SDS011;19692;52.998;9.116;2023-07-30T07:03:54;13.83;;;5.03;;
33327;SDS011;19692;52.998;9.116;2023-07-30T07:06:20;13.40;;;4.57;;
33327;SDS011;19692;52.998;9.116;2023-07-30T07:08:45;14.30;;;5.10;;
33327;SDS011;19692;52.998;9.116;2023-07-30T07:11:11;13.00;;;6.00;;
33327;SDS011;19692;52.998;9.116;2023-07-30T07:13:37;11.10;;;5.30;;
33327;SDS011;19692;52.998;9.116;2023-07-30T07:16:06;12.90;;;5.67;;
33327;SDS011;19692;52.998;9.116;2023-07-30T07:18:36;15.27;;;5.20;;
33327;SDS011;19692;52.998;9.116;2023-07-30T07:21:02;13.00;;;5.13;;
33327;SDS011;19692;52.998;9.116;2023-07-30T07:23:28;14.63;;;5.23;;
33327;SDS011;19692;52.998;9.116;2023-07-30T07:25:54;11.80;;;5.63;;
33327;SDS011;19692;52.998;9.116;2023-07-30T07:28:19;14.57;;;5.67;;
33327;SDS011;19692;52.998;9.116;2023-07-30T07:30:45;11.67;;;5.37;;
33327;SDS011;19692;52.998;9.116;2023-07-30T07:33:11;13.63;;;5.30;;
33327;SDS011;19692;52.998;9.116;2023-07-30T07:35:38;10.57;;;5.43;;
33327;SDS011;19692;52.998;9.116;2023-07-30T07:38:05;13.87;;;5.93;;
33327;SDS011;19692;52.998;9.116;2023-07-30T07:40:35;13.53;;;5.40;;
33327;SDS011;19692;52.998;9.116;2023-07-30T07:43:07;12.40;;;5.17;;
33327;SDS011;19692;52.998;9.116;2023-07-30T07:45:34;13.23;;;6.13;;
33327;SDS011;19692;52.998;9.116;2023-07-30T07:48:00;13.37;;;5.53;;
33327;SDS011;19692;52.998;9.116;2023-07-30T07:50:26;12.73;;;5.63;;
33327;SDS011;19692;52.998;9.116;2023-07-30T07:52:52;11.83;;;6.20;;
33327;SDS011;19692;52.998;9.116;2023-07-30T07:55:18;9.90;;;5.00;;
33327;SDS011;19692;52.998;9.116;2023-07-30T07:57:46;19.90;;;6.60;;
33327;SDS011;19692;52.998;9.116;2023-07-30T08:00:11;11.03;;;5.03;;
33327;SDS011;19692;52.998;9.116;2023-07-30T08:02:37;16.00;;;6.43;;
33327;SDS011;19692;52.998;9.116;2023-07-30T08:05:03;11.93;;;5.43;;
33327;SDS011;19692;52.998;9.116;2023-07-30T08:07:29;14.07;;;5.40;;
33327;SDS011;19692;52.998;9.116;2023-07-30T08:09:55;10.07;;;4.87;;
33327;SDS011;19692;52.998;9.116;2023-07-30T08:12:20;16.33;;;5.70;;
33327;SDS011;19692;52.998;9.116;2023-07-30T08:14:46;13.17;;;5.03;;
33327;SDS011;19692;52.998;9.116;2023-07-30T08:17:12;11.27;;;5.10;;
33327;SDS011;19692;52.998;9.116;2023-07-30T08:19:38;12.53;;;4.80;;
33327;SDS011;19692;52.998;9.116;2023-07-30T08:22:04;14.03;;;5.03;;
33327;SDS011;19692;52.998;9.116;2023-07-30T08:24:29;11.40;;;5.37;;
33327;SDS011;19692;52.998;9.116;2023-07-30T08:26:55;12.70;;;4.97;;
33327;SDS011;19692;52.998;9.116;2023-07-30T08:29:21;10.00;;;4.27;;
33327;SDS011;19692;52.998;9.116;2023-07-30T08:31:47;12.50;;;4.50;;
33327;SDS011;19692;52.998;9.116;2023-07-30T08:34:13;12.00;;;4.30;;
33327;SDS011;19692;52.998;9.116;2023-07-30T08:36:38;10.60;;;4.30;;
33327;SDS011;19692;52.998;9.116;2023-07-30T08:39:04;10.70;;;4.30;;
33327;SDS011;19692;52.998;9.116;2023-07-30T08:41:30;7.80;;;4.43;;
33327;SDS011;19692;52.998;9.116;2023-07-30T08:43:56;12.30;;;4.53;;
33327;SDS011;19692;52.998;9.116;2023-07-30T08:46:22;14.30;;;4.10;;
33327;SDS011;19692;52.998;9.116;2023-07-30T08:48:48;7.63;;;4.27;;
33327;SDS011;19692;52.998;9.116;2023-07-30T08:51:14;8.60;;;4.03;;
33327;SDS011;19692;52.998;9.116;2023-07-30T08:53:40;11.53;;;4.80;;
33327;SDS011;19692;52.998;9.116;2023-07-30T08:56:07;9.90;;;4.67;;
33327;SDS011;19692;52.998;9.116;2023-07-30T08:58:34;8.67;;;4.73;;
33327;SDS011;19692;52.998;9.116;2023-07-30T09:01:02;12.30;;;4.60;;
33327;SDS011;19692;52.998;9.116;2023-07-30T09:03:36;13.30;;;4.83;;
33327;SDS011;19692;52.998;9.116;2023-07-30T09:06:04;9.63;;;4.57;;
33327;SDS011;19692;52.998;9.116;2023-07-30T09:08:30;11.73;;;4.37;;
33327;SDS011;19692;52.998;9.116;2023-07-30T09:11:05;11.50;;;5.20;;
33327;SDS011;19692;52.998;9.116;2023-07-30T09:13:39;12.33;;;4.40;;
33327;SDS011;19692;52.998;9.116;2023-07-30T09:16:13;11.73;;;4.90;;
33327;SDS011;19692;52.998;9.116;2023-07-30T09:18:45;10.10;;;4.60;;
33327;SDS011;19692;52.998;9.116;2023-07-30T09:21:12;11.77;;;4.50;;
33327;SDS011;19692;52.998;9.116;2023-07-30T09:23:39;14.67;;;5.73;;
33327;SDS011;19692;52.998;9.116;2023-07-30T09:26:08;13.50;;;5.03;;
33327;SDS011;19692;52.998;9.116;2023-07-30T09:28:35;13.10;;;5.30;;
33327;SDS011;19692;52.998;9.116;2023-07-30T09:31:01;12.97;;;5.20;;
33327;SDS011;19692;52.998;9.116;2023-07-30T09:33:32;11.97;;;5.10;;
33327;SDS011;19692;52.998;9.116;2023-07-30T09:36:02;11.60;;;4.90;;
33327;SDS011;19692;52.998;9.116;2023-07-30T09:38:29;14.70;;;4.67;;
33327;SDS011;19692;52.998;9.116;2023-07-30T09:41:01;9.67;;;4.37;;
33327;SDS011;19692;52.998;9.116;2023-07-30T09:43:28;14.27;;;5.00;;
33327;SDS011;19692;52.998;9.116;2023-07-30T09:46:00;10.50;;;4.80;;
33327;SDS011;19692;52.998;9.116;2023-07-30T09:48:29;9.27;;;4.50;;
33327;SDS011;19692;52.998;9.116;2023-07-30T09:51:00;8.93;;;4.97;;
33327;SDS011;19692;52.998;9.116;2023-07-30T09:53:31;10.93;;;5.13;;
33327;SDS011;19692;52.998;9.116;2023-07-30T09:56:00;11.63;;;5.57;;
33327;SDS011;19692;52.998;9.116;2023-07-30T09:58:30;13.00;;;5.43;;
33327;SDS011;19692;52.998;9.116;2023-07-30T10:01:00;12.07;;;6.03;;
33327;SDS011;19692;52.998;9.116;2023-07-30T10:03:27;10.67;;;5.00;;
33327;SDS011;19692;52.998;9.116;2023-07-30T10:05:54;13.30;;;5.17;;
33327;SDS011;19692;52.998;9.116;2023-07-30T10:08:27;12.17;;;5.17;;
33327;SDS011;19692;52.998;9.116;2023-07-30T10:10:57;12.90;;;5.60;;
33327;SDS011;19692;52.998;9.116;2023-07-30T10:13:25;13.20;;;5.80;;
33327;SDS011;19692;52.998;9.116;2023-07-30T10:15:53;16.07;;;5.70;;
33327;SDS011;19692;52.998;9.116;2023-07-30T10:18:20;16.03;;;6.30;;
33327;SDS011;19692;52.998;9.116;2023-07-30T10:20:53;13.27;;;5.60;;
33327;SDS011;19692;52.998;9.116;2023-07-30T10:23:20;17.53;;;6.00;;
33327;SDS011;19692;52.998;9.116;2023-07-30T10:25:46;11.67;;;6.00;;
33327;SDS011;19692;52.998;9.116;2023-07-30T10:30:55;12.93;;;5.40;;
33327;SDS011;19692;52.998;9.116;2023-07-30T10:33:23;12.90;;;5.77;;
33327;SDS011;19692;52.998;9.116;2023-07-30T10:35:51;10.47;;;5.60;;
33327;SDS011;19692;52.998;9.116;2023-07-30T10:41:00;12.07;;;5.90;;
33327;SDS011;19692;52.998;9.116;2023-07-30T10:46:04;17.07;;;6.13;;
33327;SDS011;19692;52.998;9.116;2023-07-30T10:48:34;11.50;;;5.40;;
33327;SDS011;19692;52.998;9.116;2023-07-30T10:51:04;14.53;;;5.50;;
33327;SDS011;19692;52.998;9.116;2023-07-30T10:53:32;13.73;;;6.27;;
33327;SDS011;19692;52.998;9.116;2023-07-30T10:55:59;10.67;;;5.30;;
33327;SDS011;19692;52.998;9.116;2023-07-30T10:58:27;13.20;;;5.67;;
33327;SDS011;19692;52.998;9.116;2023-07-30T11:00:57;12.90;;;5.53;;
33327;SDS011;19692;52.998;9.116;2023-07-30T11:03:26;12.43;;;5.43;;
33327;SDS011;19692;52.998;9.116;2023-07-30T11:05:53;11.57;;;5.40;;
33327;SDS011;19692;52.998;9.116;2023-07-30T11:08:21;8.80;;;4.60;;
33327;SDS011;19692;52.998;9.116;2023-07-30T11:11:04;11.77;;;5.30;;
33327;SDS011;19692;52.998;9.116;2023-07-30T11:13:44;16.03;;;5.53;;
33327;SDS011;19692;52.998;9.116;2023-07-30T11:16:11;10.40;;;5.47;;
33327;SDS011;19692;52.998;9.116;2023-07-30T11:18:39;12.57;;;5.13;;
33327;SDS011;19692;52.998;9.116;2023-07-30T11:21:06;12.73;;;5.07;;
33327;SDS011;19692;52.998;9.116;2023-07-30T11:23:35;10.30;;;4.60;;
33327;SDS011;19692;52.998;9.116;2023-07-30T11:26:06;14.57;;;4.53;;
33327;SDS011;19692;52.998;9.116;2023-07-30T11:28:34;10.03;;;5.33;;
33327;SDS011;19692;52.998;9.116;2023-07-30T11:31:03;10.27;;;4.43;;
33327;SDS011;19692;52.998;9.116;2023-07-30T11:33:36;9.40;;;5.10;;
33327;SDS011;19692;52.998;9.116;2023-07-30T11:36:05;10.20;;;4.57;;
33327;SDS011;19692;52.998;9.116;2023-07-30T11:38:38;9.67;;;4.63;;
33327;SDS011;19692;52.998;9.116;2023-07-30T11:41:05;8.03;;;4.00;;
33327;SDS011;19692;52.998;9.116;2023-07-30T11:43:35;9.00;;;3.97;;
33327;SDS011;19692;52.998;9.116;2023-07-30T11:46:15;13.17;;;3.70;;
33327;SDS011;19692;52.998;9.116;2023-07-30T11:48:47;9.10;;;4.47;;
33327;SDS011;19692;52.998;9.116;2023-07-30T11:51:35;7.97;;;5.03;;
33327;SDS011;19692;52.998;9.116;2023-07-30T11:54:03;7.90;;;4.80;;
33327;SDS011;19692;52.998;9.116;2023-07-30T11:56:30;8.37;;;4.90;;
33327;SDS011;19692;52.998;9.116;2023-07-30T11:58:59;7.30;;;5.17;;
33327;SDS011;19692;52.998;9.116;2023-07-30T12:01:33;8.50;;;5.77;;
33327;SDS011;19692;52.998;9.116;2023-07-30T12:04:01;7.77;;;4.77;;
33327;SDS011;19692;52.998;9.116;2023-07-30T12:09:17;7.80;;;4.13;;
33327;SDS011;19692;52.998;9.116;2023-07-30T12:11:48;8.70;;;4.60;;
33327;SDS011;19692;52.998;9.116;2023-07-30T12:14:15;7.63;;;4.90;;
33327;SDS011;19692;52.998;9.116;2023-07-30T12:16:42;8.60;;;5.03;;
33327;SDS011;19692;52.998;9.116;2023-07-30T12:19:08;9.23;;;4.87;;
33327;SDS011;19692;52.998;9.116;2023-07-30T12:21:34;6.60;;;4.67;;
33327;SDS011;19692;52.998;9.116;2023-07-30T12:24:01;9.30;;;4.23;;
33327;SDS011;19692;52.998;9.116;2023-07-30T12:26:27;9.10;;;4.37;;
33327;SDS011;19692;52.998;9.116;2023-07-30T12:28:53;8.77;;;4.30;;
33327;SDS011;19692;52.998;9.116;2023-07-30T12:31:18;8.00;;;4.50;;
33327;SDS011;19692;52.998;9.116;2023-07-30T12:33:44;8.83;;;5.10;;
33327;SDS011;19692;52.998;9.116;2023-07-30T12:36:10;8.10;;;4.80;;
33327;SDS011;19692;52.998;9.116;2023-07-30T12:38:36;8.93;;;4.60;;
33327;SDS011;19692;52.998;9.116;2023-07-30T12:41:01;7.67;;;4.50;;
33327;SDS011;19692;52.998;9.116;2023-07-30T12:43:27;7.57;;;4.13;;
33327;SDS011;19692;52.998;9.116;2023-07-30T12:45:53;8.77;;;3.90;;
33327;SDS011;19692;52.998;9.116;2023-07-30T12:48:19;8.73;;;3.07;;
33327;SDS011;19692;52.998;9.116;2023-07-30T12:50:45;5.53;;;2.97;;
33327;SDS011;19692;52.998;9.116;2023-07-30T12:53:10;5.00;;;2.77;;
33327;SDS011;19692;52.998;9.116;2023-07-30T12:55:36;6.13;;;3.70;;
33327;SDS011;19692;52.998;9.116;2023-07-30T12:58:04;7.00;;;3.33;;
33327;SDS011;19692;52.998;9.116;2023-07-30T13:00:31;6.40;;;2.90;;
33327;SDS011;19692;52.998;9.116;2023-07-30T13:02:58;8.93;;;3.53;;
33327;SDS011;19692;52.998;9.116;2023-07-30T13:05:24;5.97;;;3.20;;
33327;SDS011;19692;52.998;9.116;2023-07-30T13:07:50;4.83;;;3.23;;
33327;SDS011;19692;52.998;9.116;2023-07-30T13:10:15;8.23;;;3.70;;
33327;SDS011;19692;52.998;9.116;2023-07-30T13:12:41;6.57;;;3.40;;
33327;SDS011;19692;52.998;9.116;2023-07-30T13:15:07;4.77;;;3.90;;
33327;SDS011;19692;52.998;9.116;2023-07-30T13:17:33;8.50;;;3.50;;
33327;SDS011;19692;52.998;9.116;2023-07-30T13:19:59;8.07;;;3.67;;
33327;SDS011;19692;52.998;9.116;2023-07-30T13:22:25;7.83;;;3.73;;
33327;SDS011;19692;52.998;9.116;2023-07-30T13:24:51;8.80;;;4.23;;
33327;SDS011;19692;52.998;9.116;2023-07-30T13:27:17;8.13;;;3.40;;
33327;SDS011;19692;52.998;9.116;2023-07-30T13:29:43;7.43;;;3.70;;
33327;SDS011;19692;52.998;9.116;2023-07-30T13:32:13;4.53;;;3.47;;
33327;SDS011;19692;52.998;9.116;2023-07-30T13:34:39;8.37;;;3.90;;
33327;SDS011;19692;52.998;9.116;2023-07-30T13:37:05;8.50;;;4.20;;
33327;SDS011;19692;52.998;9.116;2023-07-30T13:39:31;5.40;;;3.50;;
33327;SDS011;19692;52.998;9.116;2023-07-30T13:41:57;8.27;;;4.67;;
33327;SDS011;19692;52.998;9.116;2023-07-30T13:44:23;7.33;;;3.67;;
33327;SDS011;19692;52.998;9.116;2023-07-30T13:46:49;8.57;;;3.73;;
33327;SDS011;19692;52.998;9.116;2023-07-30T13:49:15;7.67;;;3.97;;
33327;SDS011;19692;52.998;9.116;2023-07-30T13:51:41;5.13;;;3.67;;
33327;SDS011;19692;52.998;9.116;2023-07-30T13:54:07;7.27;;;3.43;;
33327;SDS011;19692;52.998;9.116;2023-07-30T13:56:33;6.43;;;3.03;;
33327;SDS011;19692;52.998;9.116;2023-07-30T13:58:59;7.47;;;3.87;;
33327;SDS011;19692;52.998;9.116;2023-07-30T14:01:25;6.87;;;3.07;;
33327;SDS011;19692;52.998;9.116;2023-07-30T14:03:50;5.00;;;2.80;;
33327;SDS011;19692;52.998;9.116;2023-07-30T14:06:16;4.97;;;3.17;;
33327;SDS011;19692;52.998;9.116;2023-07-30T14:08:42;5.33;;;2.77;;
33327;SDS011;19692;52.998;9.116;2023-07-30T14:11:08;4.33;;;2.77;;
33327;SDS011;19692;52.998;9.116;2023-07-30T14:13:34;4.93;;;2.90;;
33327;SDS011;19692;52.998;9.116;2023-07-30T14:15:59;4.20;;;2.80;;
33327;SDS011;19692;52.998;9.116;2023-07-30T14:18:25;7.30;;;3.07;;
33327;SDS011;19692;52.998;9.116;2023-07-30T14:20:51;5.03;;;3.00;;
33327;SDS011;19692;52.998;9.116;2023-07-30T14:23:17;8.20;;;3.10;;
33327;SDS011;19692;52.998;9.116;2023-07-30T14:25:44;5.13;;;2.80;;
33327;SDS011;19692;52.998;9.116;2023-07-30T14:28:09;5.83;;;3.30;;
33327;SDS011;19692;52.998;9.116;2023-07-30T14:30:39;4.30;;;2.93;;
33327;SDS011;19692;52.998;9.116;2023-07-30T14:33:09;6.30;;;3.10;;
33327;SDS011;19692;52.998;9.116;2023-07-30T14:35:39;5.13;;;2.67;;
33327;SDS011;19692;52.998;9.116;2023-07-30T14:38:05;6.53;;;3.30;;
33327;SDS011;19692;52.998;9.116;2023-07-30T14:40:31;6.20;;;3.00;;
33327;SDS011;19692;52.998;9.116;2023-07-30T14:42:57;7.70;;;3.20;;
33327;SDS011;19692;52.998;9.116;2023-07-30T14:45:24;5.03;;;2.60;;
33327;SDS011;19692;52.998;9.116;2023-07-30T14:47:50;7.53;;;4.43;;
33327;SDS011;19692;52.998;9.116;2023-07-30T14:50:15;6.53;;;2.70;;